Time;durP1;ratioP1;P1;durP2;ratioP2;P2;SDS_P1;SDS_P2;PMS_P1;PMS_P2;Temp;Humidity;BMP_temperature;BMP_pressure;BME280_temperature;BME280_humidity;BME280_pressure;Samples;Min_cycle;Max_cycle;Signal;HPM_P1;HPM_P2
2023/06/23 00:02:56;;;;;;;6.80;4.18;;;;;;;;;;10201689;29;20279;-78
2023/06/23 00:07:57;;;;;;;6.35;4.47;;;;;;;;;;10191784;29;20043;-77
2023/06/23 00:12:57;;;;;;;7.15;3.03;;;;;;;;;;10205276;29;20223;-80
2023/06/23 00:18:00;;;;;;;5.43;2.80;;;;;;;;;;10198805;29;20067;-79
2023/06/23 00:23:01;;;;;;;4.13;3.20;;;;;;;;;;10193615;29;20039;-77
2023/06/23 00:28:02;;;;;;;4.00;2.90;;;;;;;;;;10184890;29;20881;-79
2023/06/23 00:33:03;;;;;;;4.00;2.60;;;;;;;;;;10208145;29;20059;-79
2023/06/23 00:38:04;;;;;;;3.50;2.70;;;;;;;;;;10205378;28;20968;-78
2023/06/23 00:43:04;;;;;;;2.97;2.40;;;;;;;;;;10203739;28;20051;-77
2023/06/23 00:48:05;;;;;;;4.13;2.97;;;;;;;;;;10196488;28;20140;-77
2023/06/23 00:53:05;;;;;;;3.97;2.55;;;;;;;;;;10201102;28;20159;-77
2023/06/23 00:58:08;;;;;;;4.25;2.45;;;;;;;;;;10192828;29;20110;-75
2023/06/23 01:03:08;;;;;;;4.53;2.80;;;;;;;;;;10188624;29;20788;-75
2023/06/23 01:08:27;;;;;;;2.83;2.20;;;;;;;;;;10209154;28;20046;-75
2023/06/23 01:13:37;;;;;;;3.38;2.40;;;;;;;;;;10195563;28;20133;-74
2023/06/23 01:18:48;;;;;;;3.67;2.40;;;;;;;;;;10198331;29;20055;-77
2023/06/23 01:24:02;;;;;;;2.35;1.95;;;;;;;;;;10207002;28;20522;-75
2023/06/23 01:29:09;;;;;;;3.97;2.10;;;;;;;;;;10187953;29;20511;-74
2023/06/23 01:34:10;;;;;;;2.20;2.00;;;;;;;;;;10191761;29;20419;-77
2023/06/23 01:39:17;;;;;;;2.90;2.20;;;;;;;;;;10199657;29;20054;-78
2023/06/23 01:44:19;;;;;;;3.08;2.03;;;;;;;;;;10196188;29;20075;-80
2023/06/23 01:49:23;;;;;;;3.38;2.40;;;;;;;;;;10187937;29;20476;-80
2023/06/23 01:54:24;;;;;;;2.78;2.28;;;;;;;;;;10208666;29;20051;-80
2023/06/23 01:59:25;;;;;;;2.42;2.20;;;;;;;;;;10203820;28;20058;-78
2023/06/23 02:04:25;;;;;;;5.28;2.63;;;;;;;;;;10183881;29;20515;-79
2023/06/23 02:09:29;;;;;;;5.22;2.33;;;;;;;;;;10167085;28;20047;-77
2023/06/23 02:14:30;;;;;;;3.25;2.47;;;;;;;;;;10190330;29;20047;-78
2023/06/23 02:19:31;;;;;;;3.60;2.70;;;;;;;;;;10203245;28;20770;-79
2023/06/23 02:24:33;;;;;;;3.70;2.50;;;;;;;;;;10200780;29;20530;-79
2023/06/23 02:29:38;;;;;;;3.00;2.20;;;;;;;;;;10187697;29;20518;-78
2023/06/23 02:34:38;;;;;;;3.80;2.67;;;;;;;;;;10180539;29;20063;-76
2023/06/23 02:39:41;;;;;;;2.53;2.13;;;;;;;;;;10189172;29;20070;-76
2023/06/23 02:44:47;;;;;;;3.33;2.30;;;;;;;;;;10201206;29;20785;-77
2023/06/23 02:49:48;;;;;;;2.47;2.25;;;;;;;;;;10206009;29;20059;-79
2023/06/23 02:54:49;;;;;;;3.72;2.80;;;;;;;;;;10202310;28;20123;-78
2023/06/23 02:59:51;;;;;;;3.25;2.53;;;;;;;;;;10177266;29;20459;-78
2023/06/23 03:04:52;;;;;;;2.63;2.42;;;;;;;;;;10196285;29;20049;-74
2023/06/23 03:09:53;;;;;;;3.93;2.93;;;;;;;;;;10197949;29;20545;-75
2023/06/23 03:14:54;;;;;;;3.93;3.20;;;;;;;;;;10185713;29;20938;-76
2023/06/23 03:20:07;;;;;;;3.72;3.33;;;;;;;;;;10199602;28;20054;-77
2023/06/23 03:25:12;;;;;;;4.13;3.72;;;;;;;;;;10190623;28;20039;-77
2023/06/23 03:30:22;;;;;;;4.75;3.55;;;;;;;;;;10176164;29;20060;-75
2023/06/23 03:35:28;;;;;;;5.57;4.07;;;;;;;;;;10198965;29;20047;-77
2023/06/23 03:40:31;;;;;;;8.98;4.40;;;;;;;;;;10189189;28;20047;-78
2023/06/23 03:45:32;;;;;;;5.43;4.05;;;;;;;;;;10198766;29;20106;-79
2023/06/23 03:50:37;;;;;;;5.55;4.18;;;;;;;;;;10195418;28;20047;-77
2023/06/23 03:55:37;;;;;;;;;;;;;;;;;;10195896;29;20057;-76
2023/06/23 04:00:39;;;;;;;5.70;4.32;;;;;;;;;;10177365;28;19926;-77
2023/06/23 04:05:40;;;;;;;6.90;4.70;;;;;;;;;;10198169;28;20525;-77
2023/06/23 04:10:40;;;;;;;6.78;4.72;;;;;;;;;;10196898;29;20051;-78
2023/06/23 04:15:42;;;;;;;5.20;4.70;;;;;;;;;;10196151;29;20513;-79
2023/06/23 04:20:44;;;;;;;5.80;5.20;;;;;;;;;;10177808;29;20496;-77
2023/06/23 04:25:48;;;;;;;5.10;4.60;;;;;;;;;;10193638;29;20060;-78
2023/06/23 04:30:48;;;;;;;6.32;4.63;;;;;;;;;;10205143;28;20369;-78
2023/06/23 04:35:49;;;;;;;5.75;4.63;;;;;;;;;;10210099;29;20054;-72
2023/06/23 04:40:54;;;;;;;6.10;4.30;;;;;;;;;;10191144;29;20146;-72
2023/06/23 04:45:54;;;;;;;6.18;4.28;;;;;;;;;;10182266;29;20142;-75
2023/06/23 04:50:58;;;;;;;6.13;4.63;;;;;;;;;;10193766;28;20052;-72
2023/06/23 04:56:01;;;;;;;5.35;4.50;;;;;;;;;;10192525;29;20656;-72
2023/06/23 05:01:02;;;;;;;8.00;5.20;;;;;;;;;;10187841;29;20056;-70
2023/06/23 05:06:04;;;;;;;6.30;4.35;;;;;;;;;;10197852;29;20050;-71
2023/06/23 05:11:06;;;;;;;6.13;4.55;;;;;;;;;;10196467;29;20094;-83
2023/06/23 05:16:10;;;;;;;5.68;4.88;;;;;;;;;;10195675;28;20104;-70
2023/06/23 05:21:11;;;;;;;5.25;4.70;;;;;;;;;;10196413;29;21084;-69
2023/06/23 05:26:14;;;;;;;5.95;4.65;;;;;;;;;;10210976;29;20047;-84
2023/06/23 05:31:14;;;;;;;7.32;5.40;;;;;;;;;;10220384;28;20058;-83
2023/06/23 05:36:15;;;;;;;5.90;5.10;;;;;;;;;;10200942;28;20046;-71
2023/06/23 05:41:16;;;;;;;5.70;4.50;;;;;;;;;;10214637;29;20023;-88
2023/06/23 05:46:18;;;;;;;7.40;5.95;;;;;;;;;;10214379;29;20056;-80
2023/06/23 05:51:28;;;;;;;5.50;4.82;;;;;;;;;;10207066;28;20093;-80
2023/06/23 05:56:35;;;;;;;7.10;5.60;;;;;;;;;;10206307;29;20047;-80
2023/06/23 06:01:42;;;;;;;6.05;5.32;;;;;;;;;;10185312;29;20060;-81
2023/06/23 06:06:44;;;;;;;6.43;5.10;;;;;;;;;;10196755;29;20483;-81
2023/06/23 06:11:45;;;;;;;7.35;5.43;;;;;;;;;;10201185;29;20079;-82
2023/06/23 06:16:47;;;;;;;8.82;7.57;;;;;;;;;;10205153;29;20790;-84
2023/06/23 06:21:48;;;;;;;7.23;5.80;;;;;;;;;;10216857;28;20050;-79
2023/06/23 06:26:49;;;;;;;7.00;5.47;;;;;;;;;;10199358;28;20055;-78
2023/06/23 06:31:51;;;;;;;9.18;5.72;;;;;;;;;;10203738;28;20050;-77
2023/06/23 06:36:52;;;;;;;6.85;5.47;;;;;;;;;;10203716;29;20455;-79
2023/06/23 06:41:53;;;;;;;5.10;4.30;;;;;;;;;;10185373;29;20047;-79
2023/06/23 06:46:53;;;;;;;7.40;4.53;;;;;;;;;;10207555;28;20869;-78
2023/06/23 06:51:54;;;;;;;8.35;7.55;;;;;;;;;;10181952;29;20067;-79
2023/06/23 06:56:55;;;;;;;5.47;4.47;;;;;;;;;;10192425;29;20047;-78
2023/06/23 07:01:55;;;;;;;6.10;4.28;;;;;;;;;;10193217;29;20578;-77
2023/06/23 07:06:56;;;;;;;4.95;4.40;;;;;;;;;;10198722;29;20046;-79
2023/06/23 07:11:57;;;;;;;5.87;4.10;;;;;;;;;;10177912;29;20086;-78
2023/06/23 07:16:58;;;;;;;6.20;4.17;;;;;;;;;;10200498;28;21091;-80
2023/06/23 07:21:59;;;;;;;4.20;3.70;;;;;;;;;;10182822;29;20411;-80
2023/06/23 07:26:59;;;;;;;5.30;3.97;;;;;;;;;;10199129;29;20051;-84
2023/06/23 07:32:01;;;;;;;4.53;4.00;;;;;;;;;;10216793;29;20085;-82
2023/06/23 07:37:01;;;;;;;4.82;4.32;;;;;;;;;;10207255;28;20073;-80
2023/06/23 07:42:01;;;;;;;5.83;3.97;;;;;;;;;;10205772;28;20053;-80
2023/06/23 07:47:03;;;;;;;4.85;4.35;;;;;;;;;;10200640;29;20315;-78
2023/06/23 07:52:04;;;;;;;5.05;4.43;;;;;;;;;;10193404;28;20059;-80
2023/06/23 07:57:08;;;;;;;4.60;4.20;;;;;;;;;;10192681;28;20051;-81
2023/06/23 08:02:08;;;;;;;5.90;4.68;;;;;;;;;;10205209;28;20137;-79
2023/06/23 08:07:08;;;;;;;5.95;5.25;;;;;;;;;;10208404;29;20047;-79
2023/06/23 08:12:09;;;;;;;6.77;4.43;;;;;;;;;;10209042;28;20596;-80
2023/06/23 08:17:09;;;;;;;5.65;4.13;;;;;;;;;;10202754;29;20813;-80
2023/06/23 08:22:10;;;;;;;8.93;4.30;;;;;;;;;;10201542;29;20094;-82
2023/06/23 08:27:10;;;;;;;6.07;4.60;;;;;;;;;;10210015;29;20511;-80
2023/06/23 08:32:11;;;;;;;6.53;4.40;;;;;;;;;;10212207;29;20647;-81
2023/06/23 08:37:11;;;;;;;4.70;4.10;;;;;;;;;;10206369;29;20055;-83
2023/06/23 08:42:12;;;;;;;6.30;4.50;;;;;;;;;;10196947;28;20047;-79
2023/06/23 08:47:13;;;;;;;5.38;4.47;;;;;;;;;;10198386;29;20456;-80
2023/06/23 08:52:14;;;;;;;5.45;4.95;;;;;;;;;;10201429;28;20055;-80
2023/06/23 08:57:18;;;;;;;6.38;5.57;;;;;;;;;;10191660;29;20059;-83
2023/06/23 09:02:18;;;;;;;7.97;5.30;;;;;;;;;;10206069;29;20054;-84
2023/06/23 09:07:18;;;;;;;5.43;4.90;;;;;;;;;;10204030;28;20154;-82
2023/06/23 09:12:20;;;;;;;6.53;5.10;;;;;;;;;;10203236;29;20486;-82
2023/06/23 09:17:22;;;;;;;7.57;5.37;;;;;;;;;;10198590;28;20043;-80
2023/06/23 09:22:23;;;;;;;6.47;5.78;;;;;;;;;;10205534;29;20039;-79
2023/06/23 09:27:38;;;;;;;6.25;5.32;;;;;;;;;;10190919;29;20103;-79
2023/06/23 09:32:43;;;;;;;5.38;4.82;;;;;;;;;;10208175;28;20059;-81
2023/06/23 09:37:43;;;;;;;5.28;4.78;;;;;;;;;;10201818;28;20048;-82
2023/06/23 09:42:43;;;;;;;5.20;4.37;;;;;;;;;;10195343;28;20048;-79
2023/06/23 09:47:47;;;;;;;5.55;4.85;;;;;;;;;;10201200;29;20287;-80
2023/06/23 09:52:58;;;;;;;8.38;5.28;;;;;;;;;;10207935;29;20051;-78
2023/06/23 09:57:59;;;;;;;6.47;5.40;;;;;;;;;;10206251;28;20051;-77
2023/06/23 10:02:59;;;;;;;4.93;4.43;;;;;;;;;;10201373;28;20047;-77
2023/06/23 10:08:07;;;;;;;6.78;4.93;;;;;;;;;;10193409;29;20056;-79
2023/06/23 10:13:07;;;;;;;5.90;4.72;;;;;;;;;;10206471;28;20080;-77
2023/06/23 10:18:11;;;;;;;5.03;4.53;;;;;;;;;;10214419;29;20044;-78
2023/06/23 10:23:12;;;;;;;5.78;4.70;;;;;;;;;;10207708;29;20052;-78
2023/06/23 10:28:15;;;;;;;5.63;4.53;;;;;;;;;;10206152;28;20433;-78
2023/06/23 10:33:19;;;;;;;5.93;4.50;;;;;;;;;;10217461;29;20514;-81
2023/06/23 10:38:25;;;;;;;6.10;5.28;;;;;;;;;;10188835;28;20050;-78
2023/06/23 10:43:30;;;;;;;7.82;4.90;;;;;;;;;;10194048;29;20036;-75
2023/06/23 10:48:31;;;;;;;5.18;4.63;;;;;;;;;;10205868;28;20040;-76
2023/06/23 10:53:32;;;;;;;6.00;5.38;;;;;;;;;;10200687;28;20162;-77
2023/06/23 10:58:49;;;;;;;5.47;4.75;;;;;;;;;;10192675;29;20078;-76
2023/06/23 11:03:51;;;;;;;6.25;4.63;;;;;;;;;;10200781;29;20058;-78
2023/06/23 11:08:51;;;;;;;6.85;4.68;;;;;;;;;;10209401;29;20199;-76
2023/06/23 11:13:52;;;;;;;6.03;4.63;;;;;;;;;;10189816;29;20512;-76
2023/06/23 11:18:59;;;;;;;5.73;4.43;;;;;;;;;;10200182;28;20047;-78
2023/06/23 11:24:19;;;;;;;5.03;4.32;;;;;;;;;;10195432;29;20139;-78
2023/06/23 11:29:20;;;;;;;6.68;5.25;;;;;;;;;;10182451;28;20301;-82
2023/06/23 11:34:20;;;;;;;5.28;4.78;;;;;;;;;;10193688;29;20055;-80
2023/06/23 11:39:22;;;;;;;6.13;4.90;;;;;;;;;;10199043;28;20048;-81
2023/06/23 11:44:22;;;;;;;6.10;4.82;;;;;;;;;;10200308;28;20054;-80
2023/06/23 11:49:23;;;;;;;5.10;4.25;;;;;;;;;;10195568;28;20059;-78
2023/06/23 11:54:23;;;;;;;5.68;4.72;;;;;;;;;;10186923;29;20561;-86
2023/06/23 11:59:23;;;;;;;4.43;3.70;;;;;;;;;;10212335;29;20681;-87
2023/06/23 12:04:25;;;;;;;4.83;4.20;;;;;;;;;;10210915;28;20168;-80
2023/06/23 12:09:26;;;;;;;5.63;4.27;;;;;;;;;;10215601;28;20043;-86
2023/06/23 12:14:29;;;;;;;5.20;4.07;;;;;;;;;;10202556;28;20548;-81
2023/06/23 12:19:31;;;;;;;4.40;3.90;;;;;;;;;;10196930;29;20357;-80
2023/06/23 12:24:32;;;;;;;4.22;3.38;;;;;;;;;;10184094;29;20495;-80
2023/06/23 12:29:33;;;;;;;3.25;2.90;;;;;;;;;;10202153;28;20054;-79
2023/06/23 12:34:35;;;;;;;3.70;3.03;;;;;;;;;;10206012;29;20096;-80
2023/06/23 12:39:35;;;;;;;2.95;2.65;;;;;;;;;;10204327;28;20052;-79
2023/06/23 12:44:38;;;;;;;3.07;2.77;;;;;;;;;;10197812;29;20491;-82
2023/06/23 12:49:38;;;;;;;3.33;2.75;;;;;;;;;;10202730;28;20043;-82
2023/06/23 12:54:39;;;;;;;2.78;2.28;;;;;;;;;;10220288;28;20570;-84
2023/06/23 12:59:39;;;;;;;4.47;3.07;;;;;;;;;;10231458;28;20056;-79
2023/06/23 13:04:40;;;;;;;4.43;2.90;;;;;;;;;;10214013;29;20142;-79
2023/06/23 13:09:41;;;;;;;3.07;2.77;;;;;;;;;;10208097;29;20645;-79
2023/06/23 13:14:42;;;;;;;3.42;2.42;;;;;;;;;;10194858;29;20134;-78
2023/06/23 13:19:42;;;;;;;2.37;2.17;;;;;;;;;;10204812;29;20771;-78
2023/06/23 13:24:42;;;;;;;4.47;2.57;;;;;;;;;;10190536;29;21047;-81
2023/06/23 13:29:43;;;;;;;3.67;2.23;;;;;;;;;;10188760;29;20393;-78
2023/06/23 13:34:45;;;;;;;3.23;2.17;;;;;;;;;;10207048;29;20047;-79
2023/06/23 13:39:48;;;;;;;3.20;2.10;;;;;;;;;;10199916;29;20277;-79
2023/06/23 13:44:48;;;;;;;2.33;2.13;;;;;;;;;;10206154;28;20042;-80
2023/06/23 13:49:49;;;;;;;4.72;2.40;;;;;;;;;;10206680;28;20047;-81
2023/06/23 13:54:50;;;;;;;3.13;2.13;;;;;;;;;;10206724;29;20039;-80
2023/06/23 13:59:50;;;;;;;2.58;2.00;;;;;;;;;;10205314;28;20134;-81
2023/06/23 14:04:50;;;;;;;2.70;2.00;;;;;;;;;;10195165;29;20051;-80
2023/06/23 14:09:52;;;;;;;3.80;2.30;;;;;;;;;;10197684;29;20059;-79
2023/06/23 14:14:53;;;;;;;2.92;2.25;;;;;;;;;;10203882;29;20062;-79
2023/06/23 14:19:53;;;;;;;3.03;2.27;;;;;;;;;;10200697;28;20043;-78
2023/06/23 14:24:54;;;;;;;3.30;2.20;;;;;;;;;;10202051;28;20339;-77
2023/06/23 14:29:54;;;;;;;4.00;2.30;;;;;;;;;;10196953;29;20690;-79
2023/06/23 14:34:54;;;;;;;3.10;2.40;;;;;;;;;;10197745;29;20080;-77
2023/06/23 14:39:55;;;;;;;2.50;1.90;;;;;;;;;;10199954;29;20083;-79
2023/06/23 14:44:55;;;;;;;3.42;2.20;;;;;;;;;;10205977;29;20055;-77
2023/06/23 14:49:56;;;;;;;3.53;2.57;;;;;;;;;;10201362;29;20047;-77
2023/06/23 14:54:56;;;;;;;4.05;2.40;;;;;;;;;;10201610;29;20051;-77
2023/06/23 14:59:56;;;;;;;3.73;2.67;;;;;;;;;;10178328;29;20055;-80
2023/06/23 15:04:57;;;;;;;2.92;2.38;;;;;;;;;;10193953;29;20287;-78
2023/06/23 15:09:58;;;;;;;2.67;2.27;;;;;;;;;;10204797;29;20078;-78
2023/06/23 15:14:58;;;;;;;5.43;2.90;;;;;;;;;;10189307;29;20058;-78
2023/06/23 15:19:58;;;;;;;3.97;2.90;;;;;;;;;;10185924;29;20058;-77
2023/06/23 15:24:59;;;;;;;3.33;2.70;;;;;;;;;;10200854;29;20040;-77
2023/06/23 15:29:59;;;;;;;4.35;2.33;;;;;;;;;;10200374;28;20048;-78
2023/06/23 15:34:59;;;;;;;2.67;2.47;;;;;;;;;;10202513;29;20502;-78
2023/06/23 15:40:01;;;;;;;3.20;2.30;;;;;;;;;;10188315;29;20561;-78
2023/06/23 15:45:01;;;;;;;3.42;2.80;;;;;;;;;;10204886;29;20083;-79
2023/06/23 15:50:02;;;;;;;4.50;2.92;;;;;;;;;;10177723;29;20084;-80
2023/06/23 15:55:03;;;;;;;3.13;2.60;;;;;;;;;;10198281;29;20055;-82
2023/06/23 16:00:04;;;;;;;3.05;2.63;;;;;;;;;;10200404;28;20065;-80
2023/06/23 16:05:05;;;;;;;3.70;3.17;;;;;;;;;;10202511;28;20040;-79
2023/06/23 16:10:06;;;;;;;3.53;2.80;;;;;;;;;;10200582;29;20039;-79
2023/06/23 16:15:06;;;;;;;5.18;3.28;;;;;;;;;;10197324;28;20044;-80
2023/06/23 16:20:07;;;;;;;3.58;3.17;;;;;;;;;;10175458;29;20062;-80
2023/06/23 16:25:08;;;;;;;5.13;3.40;;;;;;;;;;10200954;28;20500;-80
2023/06/23 16:30:09;;;;;;;4.97;3.38;;;;;;;;;;10191526;28;20054;-79
2023/06/23 16:35:10;;;;;;;4.80;3.30;;;;;;;;;;10209002;29;20047;-77
2023/06/23 16:40:11;;;;;;;4.75;3.63;;;;;;;;;;10210333;29;20480;-77
2023/06/23 16:45:11;;;;;;;4.30;3.60;;;;;;;;;;10201939;29;20551;-77
2023/06/23 16:50:12;;;;;;;4.47;3.67;;;;;;;;;;10200491;29;20057;-77
2023/06/23 16:55:12;;;;;;;6.32;4.55;;;;;;;;;;10208481;29;20047;-79
2023/06/23 17:00:13;;;;;;;5.20;4.35;;;;;;;;;;10209856;28;20201;-78
2023/06/23 17:05:14;;;;;;;7.38;4.70;;;;;;;;;;10213838;29;20118;-78
2023/06/23 17:10:14;;;;;;;5.32;4.15;;;;;;;;;;10202737;28;20063;-82
2023/06/23 17:15:15;;;;;;;5.17;4.33;;;;;;;;;;10196807;29;20404;-79
2023/06/23 17:20:15;;;;;;;5.80;4.97;;;;;;;;;;10189183;29;20444;-82
2023/06/23 17:25:17;;;;;;;5.22;4.30;;;;;;;;;;10208413;29;20054;-82
2023/06/23 17:30:18;;;;;;;5.72;4.53;;;;;;;;;;10209762;28;20051;-81
2023/06/23 17:35:18;;;;;;;5.85;4.57;;;;;;;;;;10194133;29;20047;-82
2023/06/23 17:40:24;;;;;;;6.57;4.80;;;;;;;;;;10198882;28;20044;-82
2023/06/23 17:45:25;;;;;;;6.22;4.75;;;;;;;;;;10212511;29;20294;-82
2023/06/23 17:50:25;;;;;;;5.95;5.10;;;;;;;;;;10204007;29;20381;-80
2023/06/23 17:55:26;;;;;;;5.40;4.57;;;;;;;;;;10209136;29;20044;-84
2023/06/23 18:00:26;;;;;;;5.37;4.53;;;;;;;;;;10186946;29;20123;-83
2023/06/23 18:05:27;;;;;;;5.27;4.40;;;;;;;;;;10181830;29;20315;-80
2023/06/23 18:10:27;;;;;;;4.93;4.40;;;;;;;;;;10197070;29;20052;-79
2023/06/23 18:15:29;;;;;;;7.05;5.18;;;;;;;;;;10187476;29;20051;-82
2023/06/23 18:20:29;;;;;;;6.90;5.60;;;;;;;;;;10208348;29;20047;-80
2023/06/23 18:25:30;;;;;;;5.70;5.10;;;;;;;;;;10208405;29;20118;-81
2023/06/23 18:30:30;;;;;;;6.13;4.97;;;;;;;;;;10220991;28;20305;-80
2023/06/23 18:35:32;;;;;;;6.10;5.17;;;;;;;;;;10270102;28;20787;-79
2023/06/23 18:40:33;;;;;;;6.47;4.97;;;;;;;;;;10281570;28;20705;-80
2023/06/23 18:45:36;;;;;;;6.13;4.40;;;;;;;;;;10290255;28;20089;-80
2023/06/23 18:50:36;;;;;;;6.43;5.22;;;;;;;;;;10288338;28;20124;-79
2023/06/23 18:55:36;;;;;;;5.40;4.90;;;;;;;;;;10276504;28;20067;-81
2023/06/23 19:00:40;;;;;;;7.00;5.45;;;;;;;;;;10275325;28;20424;-81
2023/06/23 19:05:41;;;;;;;6.85;5.50;;;;;;;;;;10283803;28;20050;-81
2023/06/23 19:10:42;;;;;;;5.78;4.93;;;;;;;;;;10293843;28;20046;-80
2023/06/23 19:15:43;;;;;;;6.07;4.65;;;;;;;;;;10273617;28;20050;-80
2023/06/23 19:20:43;;;;;;;5.53;4.93;;;;;;;;;;10297167;28;20054;-79
2023/06/23 19:25:43;;;;;;;8.00;5.60;;;;;;;;;;10293923;28;20140;-81
2023/06/23 19:30:44;;;;;;;6.30;5.27;;;;;;;;;;10298593;28;20046;-79
2023/06/23 19:35:44;;;;;;;5.85;5.05;;;;;;;;;;10279571;28;20286;-81
2023/06/23 19:40:45;;;;;;;6.43;5.40;;;;;;;;;;10282653;28;20042;-80
2023/06/23 19:45:46;;;;;;;6.30;5.27;;;;;;;;;;10291083;28;20042;-78
2023/06/23 19:50:46;;;;;;;6.80;5.67;;;;;;;;;;10284510;28;20058;-78
2023/06/23 19:55:47;;;;;;;6.57;5.60;;;;;;;;;;10269811;28;20237;-82
2023/06/23 20:00:47;;;;;;;8.20;5.82;;;;;;;;;;10288708;28;20039;-79
2023/06/23 20:05:47;;;;;;;6.55;5.35;;;;;;;;;;10294567;28;20982;-84
2023/06/23 20:10:48;;;;;;;6.00;5.20;;;;;;;;;;10314401;28;20065;-82
2023/06/23 20:15:49;;;;;;;7.10;5.53;;;;;;;;;;10311545;28;20137;-84
2023/06/23 20:20:49;;;;;;;5.72;4.80;;;;;;;;;;10304310;28;20050;-81
2023/06/23 20:25:50;;;;;;;7.88;5.85;;;;;;;;;;10294501;28;20076;-86
2023/06/23 20:30:50;;;;;;;7.67;5.67;;;;;;;;;;10293478;28;20046;-84
2023/06/23 20:35:51;;;;;;;5.35;4.55;;;;;;;;;;10282990;28;20106;-85
2023/06/23 20:40:52;;;;;;;6.23;5.63;;;;;;;;;;10270780;28;20055;-84
2023/06/23 20:45:53;;;;;;;6.40;5.63;;;;;;;;;;10285625;28;20293;-83
2023/06/23 20:50:54;;;;;;;6.45;5.85;;;;;;;;;;10289191;28;20043;-86
2023/06/23 20:55:54;;;;;;;6.40;5.63;;;;;;;;;;10287197;28;20046;-79
2023/06/23 21:00:56;;;;;;;8.33;6.17;;;;;;;;;;10305864;28;20289;-84
2023/06/23 21:05:57;;;;;;;7.33;5.80;;;;;;;;;;10306801;28;20885;-84
2023/06/23 21:10:58;;;;;;;6.73;6.03;;;;;;;;;;10323649;28;20218;-85
2023/06/23 21:15:58;;;;;;;7.33;5.87;;;;;;;;;;10312388;28;20153;-85
2023/06/23 21:21:00;;;;;;;5.65;4.97;;;;;;;;;;10301482;28;20035;-86
2023/06/23 21:26:00;;;;;;;6.60;5.70;;;;;;;;;;10320891;28;20050;-84
2023/06/23 21:31:00;;;;;;;8.50;5.70;;;;;;;;;;10308675;28;20126;-85
2023/06/23 21:36:01;;;;;;;6.70;5.47;;;;;;;;;;10285029;28;20778;-84
2023/06/23 21:41:01;;;;;;;5.37;4.70;;;;;;;;;;10274550;28;20054;-81
2023/06/23 21:46:01;;;;;;;7.00;6.10;;;;;;;;;;10267596;28;20849;-83
2023/06/23 21:51:02;;;;;;;7.93;5.97;;;;;;;;;;10281124;28;20529;-82
2023/06/23 21:56:02;;;;;;;8.77;6.00;;;;;;;;;;10285389;28;20113;-82
2023/06/23 22:01:03;;;;;;;6.30;5.40;;;;;;;;;;10284155;28;20516;-85
2023/06/23 22:06:03;;;;;;;7.53;5.90;;;;;;;;;;10271969;28;20057;-84
2023/06/23 22:11:04;;;;;;;10.63;7.22;;;;;;;;;;10278661;28;20327;-83
2023/06/23 22:16:05;;;;;;;7.95;6.03;;;;;;;;;;10268047;28;20042;-82
2023/06/23 22:21:08;;;;;;;8.73;6.32;;;;;;;;;;10275607;28;20058;-83
2023/06/23 22:26:09;;;;;;;7.78;6.70;;;;;;;;;;10277653;28;20481;-86
2023/06/23 22:31:09;;;;;;;6.60;5.67;;;;;;;;;;10272631;28;20486;-84
2023/06/23 22:36:10;;;;;;;7.18;6.40;;;;;;;;;;10273368;28;20635;-83
2023/06/23 22:41:11;;;;;;;7.47;5.90;;;;;;;;;;10268348;28;20137;-83
2023/06/23 22:46:13;;;;;;;7.57;6.43;;;;;;;;;;10286684;28;20094;-83
2023/06/23 22:51:13;;;;;;;5.87;5.17;;;;;;;;;;10279805;28;20054;-84
2023/06/23 22:56:15;;;;;;;8.83;7.60;;;;;;;;;;10277788;28;20491;-85
2023/06/23 23:01:15;;;;;;;9.43;8.10;;;;;;;;;;10273553;28;20050;-84
2023/06/23 23:06:16;;;;;;;8.32;7.40;;;;;;;;;;10283887;28;20045;-84
2023/06/23 23:11:17;;;;;;;9.43;8.43;;;;;;;;;;10282328;28;20050;-87
2023/06/23 23:16:18;;;;;;;10.50;9.40;;;;;;;;;;10277448;28;20113;-86
2023/06/23 23:21:21;;;;;;;8.63;7.80;;;;;;;;;;10278041;28;20285;-85
2023/06/23 23:26:24;;;;;;;9.23;8.05;;;;;;;;;;10272350;28;20078;-84
2023/06/23 23:31:25;;;;;;;10.40;8.20;;;;;;;;;;10277881;28;20053;-84
2023/06/23 23:36:29;;;;;;;9.18;7.40;;;;;;;;;;10279437;28;20039;-84
2023/06/23 23:41:29;;;;;;;8.77;7.15;;;;;;;;;;10282103;28;20104;-85
2023/06/23 23:46:29;;;;;;;8.87;6.70;;;;;;;;;;10277073;28;20591;-84
2023/06/23 23:51:30;;;;;;;8.90;7.07;;;;;;;;;;10277880;28;20061;-84
2023/06/23 23:56:31;;;;;;;7.87;6.67;;;;;;;;;;10268505;28;20071;-83
